sensor_id;sensor_type;location;lat;lon;timestamp;P1;durP1;ratioP1;P2;durP2;ratioP2
77176;SDS011;66158;44.744;16.712;2022-12-20T00:00:49;179.32;;;133.05;;
77176;SDS011;66158;44.744;16.712;2022-12-20T00:03:15;172.18;;;128.00;;
77176;SDS011;66158;44.744;16.712;2022-12-20T00:05:42;174.32;;;131.35;;
77176;SDS011;66158;44.744;16.712;2022-12-20T00:08:08;170.10;;;125.93;;
77176;SDS011;66158;44.744;16.712;2022-12-20T00:10:35;169.45;;;125.85;;
77176;SDS011;66158;44.744;16.712;2022-12-20T00:13:05;168.10;;;125.35;;
77176;SDS011;66158;44.744;16.712;2022-12-20T00:15:32;166.15;;;123.50;;
77176;SDS011;66158;44.744;16.712;2022-12-20T00:17:58;154.65;;;117.32;;
77176;SDS011;66158;44.744;16.712;2022-12-20T00:20:25;163.40;;;124.28;;
77176;SDS011;66158;44.744;16.712;2022-12-20T00:22:51;159.10;;;119.72;;
77176;SDS011;66158;44.744;16.712;2022-12-20T00:25:17;161.77;;;118.85;;
77176;SDS011;66158;44.744;16.712;2022-12-20T00:27:44;151.20;;;112.07;;
77176;SDS011;66158;44.744;16.712;2022-12-20T00:30:11;153.15;;;112.22;;
77176;SDS011;66158;44.744;16.712;2022-12-20T00:32:37;155.45;;;113.28;;
77176;SDS011;66158;44.744;16.712;2022-12-20T00:35:03;147.52;;;111.38;;
77176;SDS011;66158;44.744;16.712;2022-12-20T00:37:29;149.68;;;110.95;;
77176;SDS011;66158;44.744;16.712;2022-12-20T00:39:55;146.68;;;109.38;;
77176;SDS011;66158;44.744;16.712;2022-12-20T00:42:21;141.13;;;105.07;;
77176;SDS011;66158;44.744;16.712;2022-12-20T00:44:46;137.02;;;105.18;;
77176;SDS011;66158;44.744;16.712;2022-12-20T00:47:12;137.55;;;104.93;;
77176;SDS011;66158;44.744;16.712;2022-12-20T00:49:38;132.63;;;102.72;;
77176;SDS011;66158;44.744;16.712;2022-12-20T00:52:04;133.43;;;102.20;;
77176;SDS011;66158;44.744;16.712;2022-12-20T00:54:30;134.15;;;101.35;;
77176;SDS011;66158;44.744;16.712;2022-12-20T00:56:56;131.27;;;97.38;;
77176;SDS011;66158;44.744;16.712;2022-12-20T00:59:22;130.05;;;97.53;;
77176;SDS011;66158;44.744;16.712;2022-12-20T01:01:48;128.40;;;95.53;;
77176;SDS011;66158;44.744;16.712;2022-12-20T01:04:14;125.28;;;95.45;;
77176;SDS011;66158;44.744;16.712;2022-12-20T01:06:40;126.35;;;91.93;;
77176;SDS011;66158;44.744;16.712;2022-12-20T01:09:06;124.90;;;93.45;;
77176;SDS011;66158;44.744;16.712;2022-12-20T01:11:32;121.43;;;90.53;;
77176;SDS011;66158;44.744;16.712;2022-12-20T01:14:01;120.68;;;90.32;;
77176;SDS011;66158;44.744;16.712;2022-12-20T01:16:39;116.88;;;87.68;;
77176;SDS011;66158;44.744;16.712;2022-12-20T01:19:07;112.25;;;85.68;;
77176;SDS011;66158;44.744;16.712;2022-12-20T01:21:34;118.03;;;86.32;;
77176;SDS011;66158;44.744;16.712;2022-12-20T01:24:00;114.30;;;86.63;;
77176;SDS011;66158;44.744;16.712;2022-12-20T01:26:26;114.72;;;86.43;;
77176;SDS011;66158;44.744;16.712;2022-12-20T01:28:57;108.00;;;82.50;;
77176;SDS011;66158;44.744;16.712;2022-12-20T01:31:24;109.45;;;79.32;;
77176;SDS011;66158;44.744;16.712;2022-12-20T01:33:51;110.43;;;80.28;;
77176;SDS011;66158;44.744;16.712;2022-12-20T01:36:18;105.40;;;77.93;;
77176;SDS011;66158;44.744;16.712;2022-12-20T01:38:45;106.80;;;77.95;;
77176;SDS011;66158;44.744;16.712;2022-12-20T01:41:15;106.75;;;78.43;;
77176;SDS011;66158;44.744;16.712;2022-12-20T01:46:22;101.75;;;73.95;;
77176;SDS011;66158;44.744;16.712;2022-12-20T01:48:51;97.97;;;75.25;;
77176;SDS011;66158;44.744;16.712;2022-12-20T01:51:21;97.28;;;73.72;;
77176;SDS011;66158;44.744;16.712;2022-12-20T01:53:49;101.15;;;71.78;;
77176;SDS011;66158;44.744;16.712;2022-12-20T01:56:21;97.32;;;70.70;;
77176;SDS011;66158;44.744;16.712;2022-12-20T01:58:47;93.50;;;71.78;;
77176;SDS011;66158;44.744;16.712;2022-12-20T02:01:15;97.78;;;71.05;;
77176;SDS011;66158;44.744;16.712;2022-12-20T02:03:41;96.50;;;71.43;;
77176;SDS011;66158;44.744;16.712;2022-12-20T02:06:13;95.90;;;69.57;;
77176;SDS011;66158;44.744;16.712;2022-12-20T02:08:43;95.70;;;68.15;;
77176;SDS011;66158;44.744;16.712;2022-12-20T02:14:22;89.57;;;65.82;;
77176;SDS011;66158;44.744;16.712;2022-12-20T02:30:23;80.45;;;58.85;;
77176;SDS011;66158;44.744;16.712;2022-12-20T02:32:59;84.00;;;59.05;;
77176;SDS011;66158;44.744;16.712;2022-12-20T02:35:32;79.15;;;59.08;;
77176;SDS011;66158;44.744;16.712;2022-12-20T02:38:00;81.43;;;59.73;;
77176;SDS011;66158;44.744;16.712;2022-12-20T02:40:46;81.63;;;57.80;;
77176;SDS011;66158;44.744;16.712;2022-12-20T02:43:12;81.40;;;56.67;;
77176;SDS011;66158;44.744;16.712;2022-12-20T02:45:57;78.00;;;56.90;;
77176;SDS011;66158;44.744;16.712;2022-12-20T02:48:25;76.03;;;53.67;;
77176;SDS011;66158;44.744;16.712;2022-12-20T02:50:53;75.97;;;55.88;;
77176;SDS011;66158;44.744;16.712;2022-12-20T02:53:22;75.97;;;54.78;;
77176;SDS011;66158;44.744;16.712;2022-12-20T02:55:50;76.13;;;53.97;;
77176;SDS011;66158;44.744;16.712;2022-12-20T02:58:33;76.28;;;52.95;;
77176;SDS011;66158;44.744;16.712;2022-12-20T03:01:23;75.15;;;52.83;;
77176;SDS011;66158;44.744;16.712;2022-12-20T03:06:25;70.00;;;50.75;;
77176;SDS011;66158;44.744;16.712;2022-12-20T03:08:51;71.82;;;50.58;;
77176;SDS011;66158;44.744;16.712;2022-12-20T03:11:16;74.50;;;53.05;;
77176;SDS011;66158;44.744;16.712;2022-12-20T03:13:44;73.22;;;52.15;;
77176;SDS011;66158;44.744;16.712;2022-12-20T03:16:10;75.43;;;51.63;;
77176;SDS011;66158;44.744;16.712;2022-12-20T03:18:36;69.50;;;49.10;;
77176;SDS011;66158;44.744;16.712;2022-12-20T03:21:01;70.15;;;49.33;;
77176;SDS011;66158;44.744;16.712;2022-12-20T03:23:27;71.10;;;49.95;;
77176;SDS011;66158;44.744;16.712;2022-12-20T03:25:53;66.43;;;48.17;;
77176;SDS011;66158;44.744;16.712;2022-12-20T03:28:20;70.38;;;49.30;;
77176;SDS011;66158;44.744;16.712;2022-12-20T03:30:46;68.63;;;47.90;;
77176;SDS011;66158;44.744;16.712;2022-12-20T03:33:12;69.95;;;49.45;;
77176;SDS011;66158;44.744;16.712;2022-12-20T03:35:37;66.05;;;46.60;;
77176;SDS011;66158;44.744;16.712;2022-12-20T03:38:04;69.78;;;47.58;;
77176;SDS011;66158;44.744;16.712;2022-12-20T03:40:29;66.03;;;47.13;;
77176;SDS011;66158;44.744;16.712;2022-12-20T03:42:55;64.28;;;45.45;;
77176;SDS011;66158;44.744;16.712;2022-12-20T03:45:21;62.70;;;44.40;;
77176;SDS011;66158;44.744;16.712;2022-12-20T03:47:47;69.78;;;46.65;;
77176;SDS011;66158;44.744;16.712;2022-12-20T03:50:13;65.18;;;45.40;;
77176;SDS011;66158;44.744;16.712;2022-12-20T03:52:39;63.00;;;44.05;;
77176;SDS011;66158;44.744;16.712;2022-12-20T03:55:05;64.88;;;44.92;;
77176;SDS011;66158;44.744;16.712;2022-12-20T03:57:31;63.45;;;44.17;;
77176;SDS011;66158;44.744;16.712;2022-12-20T03:59:57;62.45;;;44.25;;
77176;SDS011;66158;44.744;16.712;2022-12-20T04:02:23;63.60;;;44.10;;
77176;SDS011;66158;44.744;16.712;2022-12-20T04:04:49;61.08;;;42.50;;
77176;SDS011;66158;44.744;16.712;2022-12-20T04:07:15;61.75;;;42.72;;
77176;SDS011;66158;44.744;16.712;2022-12-20T04:09:41;61.85;;;43.33;;
77176;SDS011;66158;44.744;16.712;2022-12-20T04:12:06;62.67;;;41.60;;
77176;SDS011;66158;44.744;16.712;2022-12-20T04:14:32;61.22;;;43.05;;
77176;SDS011;66158;44.744;16.712;2022-12-20T04:16:58;60.20;;;43.03;;
77176;SDS011;66158;44.744;16.712;2022-12-20T04:19:24;62.70;;;43.72;;
77176;SDS011;66158;44.744;16.712;2022-12-20T04:21:50;61.22;;;42.53;;
77176;SDS011;66158;44.744;16.712;2022-12-20T04:24:15;59.90;;;41.00;;
77176;SDS011;66158;44.744;16.712;2022-12-20T04:26:41;62.47;;;41.95;;
77176;SDS011;66158;44.744;16.712;2022-12-20T04:29:07;58.08;;;41.08;;
77176;SDS011;66158;44.744;16.712;2022-12-20T04:31:33;57.60;;;40.47;;
77176;SDS011;66158;44.744;16.712;2022-12-20T04:34:00;57.00;;;39.28;;
77176;SDS011;66158;44.744;16.712;2022-12-20T04:36:26;60.28;;;40.90;;
77176;SDS011;66158;44.744;16.712;2022-12-20T04:38:51;57.00;;;38.40;;
77176;SDS011;66158;44.744;16.712;2022-12-20T04:41:18;56.75;;;39.83;;
77176;SDS011;66158;44.744;16.712;2022-12-20T04:43:48;53.25;;;38.38;;
77176;SDS011;66158;44.744;16.712;2022-12-20T04:46:14;59.17;;;40.08;;
77176;SDS011;66158;44.744;16.712;2022-12-20T04:48:40;60.22;;;39.67;;
77176;SDS011;66158;44.744;16.712;2022-12-20T04:51:06;57.42;;;39.70;;
77176;SDS011;66158;44.744;16.712;2022-12-20T04:53:31;50.85;;;37.85;;
77176;SDS011;66158;44.744;16.712;2022-12-20T04:56:17;55.53;;;37.22;;
77176;SDS011;66158;44.744;16.712;2022-12-20T04:58:45;54.97;;;38.38;;
77176;SDS011;66158;44.744;16.712;2022-12-20T05:01:12;57.83;;;39.83;;
77176;SDS011;66158;44.744;16.712;2022-12-20T05:03:39;56.42;;;37.65;;
77176;SDS011;66158;44.744;16.712;2022-12-20T05:06:05;56.08;;;38.88;;
77176;SDS011;66158;44.744;16.712;2022-12-20T05:08:32;56.63;;;38.88;;
77176;SDS011;66158;44.744;16.712;2022-12-20T05:10:58;56.35;;;38.95;;
77176;SDS011;66158;44.744;16.712;2022-12-20T05:13:24;54.25;;;38.30;;
77176;SDS011;66158;44.744;16.712;2022-12-20T05:15:51;53.50;;;38.10;;
77176;SDS011;66158;44.744;16.712;2022-12-20T05:18:18;56.20;;;38.85;;
77176;SDS011;66158;44.744;16.712;2022-12-20T05:20:44;57.88;;;38.85;;
77176;SDS011;66158;44.744;16.712;2022-12-20T05:23:10;51.30;;;36.85;;
77176;SDS011;66158;44.744;16.712;2022-12-20T05:25:54;56.05;;;37.97;;
77176;SDS011;66158;44.744;16.712;2022-12-20T05:28:39;57.70;;;39.42;;
77176;SDS011;66158;44.744;16.712;2022-12-20T05:31:05;55.72;;;37.17;;
77176;SDS011;66158;44.744;16.712;2022-12-20T05:33:31;52.33;;;37.50;;
77176;SDS011;66158;44.744;16.712;2022-12-20T05:35:56;53.80;;;37.60;;
77176;SDS011;66158;44.744;16.712;2022-12-20T05:38:23;57.22;;;37.97;;
77176;SDS011;66158;44.744;16.712;2022-12-20T05:40:49;55.25;;;37.85;;
77176;SDS011;66158;44.744;16.712;2022-12-20T05:43:16;53.50;;;36.97;;
77176;SDS011;66158;44.744;16.712;2022-12-20T05:45:46;52.58;;;36.72;;
77176;SDS011;66158;44.744;16.712;2022-12-20T05:48:12;57.15;;;38.17;;
77176;SDS011;66158;44.744;16.712;2022-12-20T05:50:39;55.78;;;37.08;;
77176;SDS011;66158;44.744;16.712;2022-12-20T05:53:05;55.83;;;37.55;;
77176;SDS011;66158;44.744;16.712;2022-12-20T05:55:31;54.08;;;37.67;;
77176;SDS011;66158;44.744;16.712;2022-12-20T05:57:56;56.22;;;37.80;;
77176;SDS011;66158;44.744;16.712;2022-12-20T06:00:22;52.00;;;35.65;;
77176;SDS011;66158;44.744;16.712;2022-12-20T06:02:48;56.08;;;36.55;;
77176;SDS011;66158;44.744;16.712;2022-12-20T06:05:14;54.83;;;35.83;;
77176;SDS011;66158;44.744;16.712;2022-12-20T06:07:40;54.58;;;37.08;;
77176;SDS011;66158;44.744;16.712;2022-12-20T06:10:05;52.25;;;36.40;;
77176;SDS011;66158;44.744;16.712;2022-12-20T06:12:32;49.80;;;34.28;;
77176;SDS011;66158;44.744;16.712;2022-12-20T06:14:59;49.42;;;34.47;;
77176;SDS011;66158;44.744;16.712;2022-12-20T06:17:24;47.53;;;33.53;;
77176;SDS011;66158;44.744;16.712;2022-12-20T06:19:50;54.50;;;36.33;;
77176;SDS011;66158;44.744;16.712;2022-12-20T06:22:16;51.15;;;36.00;;
77176;SDS011;66158;44.744;16.712;2022-12-20T06:24:42;51.05;;;34.20;;
77176;SDS011;66158;44.744;16.712;2022-12-20T06:27:08;47.55;;;33.78;;
77176;SDS011;66158;44.744;16.712;2022-12-20T06:29:35;52.90;;;35.90;;
77176;SDS011;66158;44.744;16.712;2022-12-20T06:32:01;52.00;;;35.15;;
77176;SDS011;66158;44.744;16.712;2022-12-20T06:34:29;49.10;;;34.28;;
77176;SDS011;66158;44.744;16.712;2022-12-20T06:36:57;52.50;;;35.03;;
77176;SDS011;66158;44.744;16.712;2022-12-20T06:39:23;55.58;;;35.45;;
77176;SDS011;66158;44.744;16.712;2022-12-20T06:41:49;56.10;;;35.33;;
77176;SDS011;66158;44.744;16.712;2022-12-20T06:44:14;47.50;;;33.33;;
77176;SDS011;66158;44.744;16.712;2022-12-20T06:46:40;52.70;;;36.30;;
77176;SDS011;66158;44.744;16.712;2022-12-20T06:49:06;48.83;;;32.30;;
77176;SDS011;66158;44.744;16.712;2022-12-20T06:51:32;48.30;;;32.53;;
77176;SDS011;66158;44.744;16.712;2022-12-20T06:53:58;48.47;;;33.22;;
77176;SDS011;66158;44.744;16.712;2022-12-20T06:56:24;52.95;;;35.65;;
77176;SDS011;66158;44.744;16.712;2022-12-20T06:58:49;49.63;;;32.97;;
77176;SDS011;66158;44.744;16.712;2022-12-20T07:01:15;52.53;;;36.28;;
77176;SDS011;66158;44.744;16.712;2022-12-20T07:03:41;52.22;;;35.22;;
77176;SDS011;66158;44.744;16.712;2022-12-20T07:06:07;51.20;;;34.95;;
77176;SDS011;66158;44.744;16.712;2022-12-20T07:08:32;50.40;;;34.10;;
77176;SDS011;66158;44.744;16.712;2022-12-20T07:11:02;54.58;;;35.92;;
77176;SDS011;66158;44.744;16.712;2022-12-20T07:13:29;51.75;;;35.55;;
77176;SDS011;66158;44.744;16.712;2022-12-20T07:15:58;49.15;;;33.58;;
77176;SDS011;66158;44.744;16.712;2022-12-20T07:18:26;49.42;;;33.38;;
77176;SDS011;66158;44.744;16.712;2022-12-20T07:20:52;52.72;;;36.13;;
77176;SDS011;66158;44.744;16.712;2022-12-20T07:23:17;51.80;;;33.35;;
77176;SDS011;66158;44.744;16.712;2022-12-20T07:25:47;44.83;;;32.45;;
77176;SDS011;66158;44.744;16.712;2022-12-20T07:28:20;53.58;;;34.50;;
77176;SDS011;66158;44.744;16.712;2022-12-20T07:30:46;45.90;;;32.40;;
77176;SDS011;66158;44.744;16.712;2022-12-20T07:33:12;48.30;;;33.50;;
77176;SDS011;66158;44.744;16.712;2022-12-20T07:35:38;48.50;;;33.53;;
77176;SDS011;66158;44.744;16.712;2022-12-20T07:38:04;51.05;;;33.28;;
77176;SDS011;66158;44.744;16.712;2022-12-20T07:40:30;49.40;;;34.70;;
77176;SDS011;66158;44.744;16.712;2022-12-20T07:42:56;50.10;;;34.22;;
77176;SDS011;66158;44.744;16.712;2022-12-20T07:45:22;48.97;;;32.92;;
77176;SDS011;66158;44.744;16.712;2022-12-20T07:47:47;49.45;;;33.20;;
77176;SDS011;66158;44.744;16.712;2022-12-20T07:50:13;44.33;;;32.03;;
77176;SDS011;66158;44.744;16.712;2022-12-20T07:52:39;49.63;;;32.17;;
77176;SDS011;66158;44.744;16.712;2022-12-20T07:55:10;47.85;;;32.92;;
77176;SDS011;66158;44.744;16.712;2022-12-20T07:57:48;45.28;;;31.33;;
77176;SDS011;66158;44.744;16.712;2022-12-20T08:00:17;47.65;;;31.50;;
77176;SDS011;66158;44.744;16.712;2022-12-20T08:02:47;43.85;;;29.90;;
77176;SDS011;66158;44.744;16.712;2022-12-20T08:05:36;45.50;;;31.85;;
77176;SDS011;66158;44.744;16.712;2022-12-20T08:08:05;45.75;;;31.33;;
77176;SDS011;66158;44.744;16.712;2022-12-20T08:10:32;45.92;;;31.55;;
77176;SDS011;66158;44.744;16.712;2022-12-20T08:12:58;44.45;;;31.23;;
77176;SDS011;66158;44.744;16.712;2022-12-20T08:15:24;43.70;;;29.88;;
77176;SDS011;66158;44.744;16.712;2022-12-20T08:17:52;41.80;;;29.80;;
77176;SDS011;66158;44.744;16.712;2022-12-20T08:20:18;47.45;;;30.83;;
77176;SDS011;66158;44.744;16.712;2022-12-20T08:22:43;45.90;;;30.75;;
77176;SDS011;66158;44.744;16.712;2022-12-20T08:25:09;39.78;;;28.13;;
77176;SDS011;66158;44.744;16.712;2022-12-20T08:27:36;43.58;;;29.23;;
77176;SDS011;66158;44.744;16.712;2022-12-20T08:30:02;38.40;;;28.20;;
77176;SDS011;66158;44.744;16.712;2022-12-20T08:32:28;42.33;;;29.50;;
77176;SDS011;66158;44.744;16.712;2022-12-20T08:34:54;39.63;;;28.33;;
77176;SDS011;66158;44.744;16.712;2022-12-20T08:37:20;40.80;;;28.60;;
77176;SDS011;66158;44.744;16.712;2022-12-20T08:39:46;39.75;;;28.73;;
77176;SDS011;66158;44.744;16.712;2022-12-20T08:42:11;39.65;;;26.58;;
77176;SDS011;66158;44.744;16.712;2022-12-20T08:44:37;37.60;;;26.42;;
77176;SDS011;66158;44.744;16.712;2022-12-20T08:47:03;39.05;;;26.70;;
77176;SDS011;66158;44.744;16.712;2022-12-20T08:49:28;36.80;;;27.25;;
77176;SDS011;66158;44.744;16.712;2022-12-20T08:51:54;36.38;;;25.77;;
77176;SDS011;66158;44.744;16.712;2022-12-20T08:54:20;39.90;;;28.17;;
77176;SDS011;66158;44.744;16.712;2022-12-20T08:56:46;36.65;;;25.80;;
77176;SDS011;66158;44.744;16.712;2022-12-20T08:59:12;36.10;;;24.85;;
77176;SDS011;66158;44.744;16.712;2022-12-20T09:01:38;35.58;;;26.35;;
77176;SDS011;66158;44.744;16.712;2022-12-20T09:04:04;34.47;;;25.60;;
77176;SDS011;66158;44.744;16.712;2022-12-20T09:06:30;37.03;;;25.83;;
77176;SDS011;66158;44.744;16.712;2022-12-20T09:08:55;34.15;;;25.23;;
77176;SDS011;66158;44.744;16.712;2022-12-20T09:11:24;34.78;;;24.90;;
77176;SDS011;66158;44.744;16.712;2022-12-20T09:13:52;32.15;;;24.00;;
77176;SDS011;66158;44.744;16.712;2022-12-20T09:16:20;33.17;;;24.08;;
77176;SDS011;66158;44.744;16.712;2022-12-20T09:18:48;34.00;;;24.38;;
77176;SDS011;66158;44.744;16.712;2022-12-20T09:21:18;32.88;;;24.00;;
77176;SDS011;66158;44.744;16.712;2022-12-20T09:23:44;34.92;;;24.20;;
77176;SDS011;66158;44.744;16.712;2022-12-20T09:26:12;36.53;;;24.63;;
77176;SDS011;66158;44.744;16.712;2022-12-20T09:28:40;34.75;;;23.73;;
77176;SDS011;66158;44.744;16.712;2022-12-20T09:31:07;32.67;;;22.80;;
77176;SDS011;66158;44.744;16.712;2022-12-20T09:33:35;34.45;;;24.15;;
77176;SDS011;66158;44.744;16.712;2022-12-20T09:36:02;34.33;;;24.40;;
77176;SDS011;66158;44.744;16.712;2022-12-20T09:38:29;32.45;;;23.27;;
77176;SDS011;66158;44.744;16.712;2022-12-20T09:41:06;31.90;;;23.02;;
77176;SDS011;66158;44.744;16.712;2022-12-20T09:43:39;31.38;;;22.77;;
77176;SDS011;66158;44.744;16.712;2022-12-20T09:46:05;33.97;;;22.95;;
77176;SDS011;66158;44.744;16.712;2022-12-20T09:48:36;28.63;;;21.65;;
77176;SDS011;66158;44.744;16.712;2022-12-20T09:56:24;30.40;;;22.25;;
77176;SDS011;66158;44.744;16.712;2022-12-20T10:01:23;33.47;;;22.90;;
77176;SDS011;66158;44.744;16.712;2022-12-20T10:03:51;34.15;;;23.70;;
77176;SDS011;66158;44.744;16.712;2022-12-20T10:12:11;35.33;;;21.70;;
77176;SDS011;66158;44.744;16.712;2022-12-20T10:15:03;29.15;;;20.35;;
77176;SDS011;66158;44.744;16.712;2022-12-20T10:20:26;27.67;;;20.23;;
77176;SDS011;66158;44.744;16.712;2022-12-20T10:23:35;30.00;;;19.80;;
77176;SDS011;66158;44.744;16.712;2022-12-20T10:26:14;28.13;;;20.95;;
77176;SDS011;66158;44.744;16.712;2022-12-20T10:28:42;29.25;;;19.83;;
77176;SDS011;66158;44.744;16.712;2022-12-20T10:31:11;25.73;;;19.95;;
77176;SDS011;66158;44.744;16.712;2022-12-20T10:33:41;27.05;;;19.83;;
77176;SDS011;66158;44.744;16.712;2022-12-20T10:39:02;27.55;;;20.00;;
77176;SDS011;66158;44.744;16.712;2022-12-20T10:49:26;36.00;;;20.88;;
77176;SDS011;66158;44.744;16.712;2022-12-20T10:51:53;32.05;;;20.73;;
77176;SDS011;66158;44.744;16.712;2022-12-20T11:02:34;34.47;;;22.23;;
77176;SDS011;66158;44.744;16.712;2022-12-20T11:05:23;46.03;;;23.38;;
77176;SDS011;66158;44.744;16.712;2022-12-20T11:07:58;42.75;;;23.67;;
77176;SDS011;66158;44.744;16.712;2022-12-20T11:10:36;46.05;;;23.02;;
77176;SDS011;66158;44.744;16.712;2022-12-20T11:13:02;35.97;;;22.73;;
77176;SDS011;66158;44.744;16.712;2022-12-20T11:15:29;38.03;;;22.30;;
77176;SDS011;66158;44.744;16.712;2022-12-20T11:18:04;36.78;;;23.95;;
77176;SDS011;66158;44.744;16.712;2022-12-20T11:35:12;34.47;;;24.45;;
77176;SDS011;66158;44.744;16.712;2022-12-20T11:37:52;34.65;;;22.08;;
77176;SDS011;66158;44.744;16.712;2022-12-20T11:40:30;36.35;;;23.73;;
77176;SDS011;66158;44.744;16.712;2022-12-20T11:48:44;282.13;;;235.38;;
77176;SDS011;66158;44.744;16.712;2022-12-20T11:51:23;348.55;;;295.83;;
77176;SDS011;66158;44.744;16.712;2022-12-20T11:53:59;295.08;;;253.65;;
77176;SDS011;66158;44.744;16.712;2022-12-20T11:56:39;273.05;;;235.85;;
77176;SDS011;66158;44.744;16.712;2022-12-20T12:01:48;307.60;;;259.70;;
77176;SDS011;66158;44.744;16.712;2022-12-20T12:04:41;323.98;;;278.13;;
77176;SDS011;66158;44.744;16.712;2022-12-20T12:07:34;384.90;;;328.90;;
77176;SDS011;66158;44.744;16.712;2022-12-20T12:10:02;320.02;;;276.58;;
77176;SDS011;66158;44.744;16.712;2022-12-20T12:12:45;309.92;;;268.55;;
77176;SDS011;66158;44.744;16.712;2022-12-20T12:18:21;284.58;;;252.90;;
77176;SDS011;66158;44.744;16.712;2022-12-20T12:20:55;275.13;;;244.48;;
77176;SDS011;66158;44.744;16.712;2022-12-20T12:26:14;260.30;;;231.85;;
77176;SDS011;66158;44.744;16.712;2022-12-20T12:28:46;240.43;;;210.23;;
77176;SDS011;66158;44.744;16.712;2022-12-20T12:31:22;232.07;;;203.35;;
77176;SDS011;66158;44.744;16.712;2022-12-20T12:34:10;239.27;;;200.75;;
77176;SDS011;66158;44.744;16.712;2022-12-20T12:39:51;227.27;;;189.80;;
77176;SDS011;66158;44.744;16.712;2022-12-20T12:45:27;235.75;;;198.20;;
77176;SDS011;66158;44.744;16.712;2022-12-20T12:51:06;317.02;;;263.48;;
77176;SDS011;66158;44.744;16.712;2022-12-20T13:09:21;259.63;;;214.63;;
77176;SDS011;66158;44.744;16.712;2022-12-20T13:12:45;240.98;;;198.25;;
77176;SDS011;66158;44.744;16.712;2022-12-20T13:20:16;220.98;;;181.95;;
77176;SDS011;66158;44.744;16.712;2022-12-20T13:33:39;195.68;;;163.43;;
77176;SDS011;66158;44.744;16.712;2022-12-20T13:55:15;165.32;;;130.90;;
77176;SDS011;66158;44.744;16.712;2022-12-20T13:57:46;161.20;;;129.23;;
77176;SDS011;66158;44.744;16.712;2022-12-20T14:00:24;154.68;;;122.70;;
77176;SDS011;66158;44.744;16.712;2022-12-20T14:02:51;152.02;;;124.50;;
77176;SDS011;66158;44.744;16.712;2022-12-20T14:05:21;158.20;;;123.93;;
77176;SDS011;66158;44.744;16.712;2022-12-20T14:07:58;148.52;;;119.93;;
77176;SDS011;66158;44.744;16.712;2022-12-20T14:10:27;148.77;;;120.88;;
77176;SDS011;66158;44.744;16.712;2022-12-20T14:12:56;146.80;;;117.68;;
77176;SDS011;66158;44.744;16.712;2022-12-20T14:15:33;150.93;;;117.53;;
77176;SDS011;66158;44.744;16.712;2022-12-20T14:18:06;143.65;;;115.57;;
77176;SDS011;66158;44.744;16.712;2022-12-20T14:23:12;144.63;;;116.03;;
77176;SDS011;66158;44.744;16.712;2022-12-20T14:25:51;135.13;;;114.43;;
77176;SDS011;66158;44.744;16.712;2022-12-20T14:30:48;134.00;;;111.40;;
77176;SDS011;66158;44.744;16.712;2022-12-20T14:33:25;126.70;;;105.38;;
77176;SDS011;66158;44.744;16.712;2022-12-20T14:35:53;122.13;;;103.47;;
77176;SDS011;66158;44.744;16.712;2022-12-20T14:38:23;125.25;;;104.25;;
77176;SDS011;66158;44.744;16.712;2022-12-20T14:40:54;121.75;;;100.90;;
77176;SDS011;66158;44.744;16.712;2022-12-20T14:43:25;124.13;;;101.72;;
77176;SDS011;66158;44.744;16.712;2022-12-20T14:46:15;117.38;;;97.95;;
77176;SDS011;66158;44.744;16.712;2022-12-20T14:48:43;119.53;;;98.18;;
77176;SDS011;66158;44.744;16.712;2022-12-20T14:51:12;115.00;;;94.25;;
77176;SDS011;66158;44.744;16.712;2022-12-20T14:53:48;117.00;;;90.05;;
77176;SDS011;66158;44.744;16.712;2022-12-20T14:56:18;114.28;;;94.47;;
77176;SDS011;66158;44.744;16.712;2022-12-20T14:59:00;113.85;;;92.50;;
77176;SDS011;66158;44.744;16.712;2022-12-20T15:01:30;112.47;;;90.50;;
77176;SDS011;66158;44.744;16.712;2022-12-20T15:03:58;109.38;;;86.80;;
77176;SDS011;66158;44.744;16.712;2022-12-20T15:09:00;105.43;;;87.00;;
77176;SDS011;66158;44.744;16.712;2022-12-20T15:11:29;106.80;;;88.32;;
77176;SDS011;66158;44.744;16.712;2022-12-20T15:13:59;111.32;;;88.35;;
77176;SDS011;66158;44.744;16.712;2022-12-20T15:16:29;99.25;;;80.00;;
77176;SDS011;66158;44.744;16.712;2022-12-20T15:18:58;95.70;;;79.30;;
77176;SDS011;66158;44.744;16.712;2022-12-20T15:21:36;100.85;;;83.60;;
77176;SDS011;66158;44.744;16.712;2022-12-20T15:24:40;100.20;;;79.93;;
77176;SDS011;66158;44.744;16.712;2022-12-20T15:27:00;104.18;;;83.38;;
77176;SDS011;66158;44.744;16.712;2022-12-20T15:29:27;95.10;;;78.00;;
77176;SDS011;66158;44.744;16.712;2022-12-20T15:32:00;94.47;;;75.78;;
77176;SDS011;66158;44.744;16.712;2022-12-20T15:34:39;98.75;;;76.38;;
77176;SDS011;66158;44.744;16.712;2022-12-20T15:37:12;87.60;;;71.65;;
77176;SDS011;66158;44.744;16.712;2022-12-20T15:39:40;90.93;;;72.85;;
77176;SDS011;66158;44.744;16.712;2022-12-20T15:42:08;90.30;;;73.82;;
77176;SDS011;66158;44.744;16.712;2022-12-20T15:44:42;88.50;;;70.68;;
77176;SDS011;66158;44.744;16.712;2022-12-20T15:47:11;82.85;;;68.20;;
77176;SDS011;66158;44.744;16.712;2022-12-20T15:49:44;88.05;;;69.28;;
77176;SDS011;66158;44.744;16.712;2022-12-20T15:52:19;87.72;;;73.13;;
77176;SDS011;66158;44.744;16.712;2022-12-20T15:54:48;86.95;;;69.88;;
77176;SDS011;66158;44.744;16.712;2022-12-20T15:57:15;87.40;;;67.93;;
77176;SDS011;66158;44.744;16.712;2022-12-20T15:59:41;88.55;;;72.45;;
77176;SDS011;66158;44.744;16.712;2022-12-20T16:02:29;88.63;;;67.25;;
77176;SDS011;66158;44.744;16.712;2022-12-20T16:04:56;86.57;;;66.88;;
77176;SDS011;66158;44.744;16.712;2022-12-20T16:07:23;89.10;;;73.10;;
77176;SDS011;66158;44.744;16.712;2022-12-20T16:09:51;88.63;;;68.28;;
77176;SDS011;66158;44.744;16.712;2022-12-20T16:14:50;84.22;;;66.38;;
77176;SDS011;66158;44.744;16.712;2022-12-20T16:17:17;84.63;;;64.43;;
77176;SDS011;66158;44.744;16.712;2022-12-20T16:19:44;84.05;;;65.22;;
77176;SDS011;66158;44.744;16.712;2022-12-20T16:22:13;78.75;;;61.75;;
77176;SDS011;66158;44.744;16.712;2022-12-20T16:24:43;80.72;;;64.43;;
77176;SDS011;66158;44.744;16.712;2022-12-20T16:27:12;80.03;;;62.78;;
77176;SDS011;66158;44.744;16.712;2022-12-20T16:29:39;81.55;;;62.95;;
77176;SDS011;66158;44.744;16.712;2022-12-20T16:32:13;78.53;;;66.32;;
77176;SDS011;66158;44.744;16.712;2022-12-20T16:34:45;79.32;;;66.18;;
77176;SDS011;66158;44.744;16.712;2022-12-20T16:37:15;80.32;;;62.47;;
77176;SDS011;66158;44.744;16.712;2022-12-20T16:39:42;79.47;;;64.97;;
77176;SDS011;66158;44.744;16.712;2022-12-20T16:42:14;78.47;;;60.60;;
77176;SDS011;66158;44.744;16.712;2022-12-20T16:44:50;80.15;;;63.83;;
77176;SDS011;66158;44.744;16.712;2022-12-20T16:47:20;73.32;;;59.22;;
77176;SDS011;66158;44.744;16.712;2022-12-20T16:49:49;75.50;;;62.88;;
77176;SDS011;66158;44.744;16.712;2022-12-20T16:52:17;78.60;;;62.88;;